createdAt,value
2017-10-14T00:01:22.267Z,10.70
2017-10-14T00:03:49.824Z,7.30
2017-10-14T00:06:17.781Z,8.37
2017-10-14T00:08:45.325Z,7.33
2017-10-14T00:11:12.857Z,6.87
2017-10-14T00:13:40.788Z,8.70
2017-10-14T00:16:08.308Z,7.20
2017-10-14T00:18:35.854Z,7.03
2017-10-14T00:21:03.389Z,6.97
2017-10-14T00:23:30.921Z,7.27
2017-10-14T00:25:58.484Z,7.00
2017-10-14T00:28:26.404Z,8.27
2017-10-14T00:30:53.964Z,8.33
2017-10-14T00:33:22.002Z,6.80
2017-10-14T00:35:49.565Z,8.97
2017-10-14T00:38:17.109Z,7.23
2017-10-14T00:40:44.624Z,6.93
2017-10-14T00:43:12.154Z,7.57
2017-10-14T00:45:39.718Z,8.40
2017-10-14T00:48:07.266Z,6.90
2017-10-14T00:50:34.814Z,6.97
2017-10-14T00:53:02.407Z,10.97
2017-10-14T00:55:29.924Z,7.60
2017-10-14T00:57:57.486Z,6.27
2017-10-14T01:00:25.036Z,8.27
2017-10-14T01:02:52.579Z,8.23
2017-10-14T01:05:20.537Z,8.97
2017-10-14T01:07:48.076Z,5.90
2017-10-14T01:10:15.641Z,7.37
2017-10-14T01:12:43.170Z,8.07
2017-10-14T01:15:11.109Z,11.10
2017-10-14T01:17:38.642Z,8.13
2017-10-14T01:20:06.169Z,6.83
2017-10-14T01:22:33.745Z,6.73
2017-10-14T01:25:01.292Z,6.90
2017-10-14T01:27:28.856Z,10.50
2017-10-14T01:29:56.395Z,8.80
2017-10-14T01:32:23.975Z,10.57
2017-10-14T01:34:51.504Z,7.43
2017-10-14T01:37:19.034Z,9.40
2017-10-14T01:39:46.595Z,10.10
2017-10-14T01:42:14.116Z,6.97
2017-10-14T01:44:41.661Z,7.20
2017-10-14T01:47:09.199Z,10.90
2017-10-14T01:49:36.764Z,8.10
2017-10-14T01:52:04.703Z,10.43
2017-10-14T01:54:32.247Z,7.03
2017-10-14T01:56:59.793Z,7.90
2017-10-14T01:59:27.339Z,8.30
2017-10-14T02:01:54.886Z,10.90
2017-10-14T02:04:22.412Z,6.77
2017-10-14T02:06:50.011Z,8.80
2017-10-14T02:09:17.539Z,7.73
2017-10-14T02:11:45.502Z,6.93
2017-10-14T02:14:13.046Z,7.17
2017-10-14T02:16:40.572Z,9.20
2017-10-14T02:19:08.528Z,7.47
2017-10-14T02:21:36.056Z,8.30
2017-10-14T02:24:03.604Z,8.50
2017-10-14T02:26:31.136Z,6.77
2017-10-14T02:28:58.767Z,7.30
2017-10-14T02:31:26.350Z,9.93
2017-10-14T02:33:53.920Z,7.27
2017-10-14T02:36:21.446Z,6.20
2017-10-14T02:38:49.380Z,11.80
2017-10-14T02:41:16.945Z,7.47
2017-10-14T02:43:44.469Z,8.47
2017-10-14T02:46:12.431Z,8.30
2017-10-14T02:48:39.973Z,9.43
2017-10-14T02:51:07.536Z,7.53
2017-10-14T02:53:35.078Z,9.23
2017-10-14T02:56:02.653Z,6.30
2017-10-14T02:58:30.194Z,9.37
2017-10-14T03:00:57.723Z,9.10
2017-10-14T03:03:25.273Z,10.85
2017-10-14T03:05:52.843Z,8.37
2017-10-14T03:08:20.397Z,7.27
2017-10-14T03:10:47.948Z,7.55
2017-10-14T03:13:15.490Z,9.82
2017-10-14T03:15:43.021Z,17.00
2017-10-14T03:18:10.615Z,8.53
2017-10-14T03:20:38.159Z,7.12
2017-10-14T03:23:05.697Z,6.60
2017-10-14T03:25:33.249Z,8.70
2017-10-14T03:28:00.777Z,6.90
2017-10-14T03:30:28.346Z,8.57
2017-10-14T03:32:55.887Z,7.20
2017-10-14T03:35:23.426Z,7.20
2017-10-14T03:37:50.975Z,7.87
2017-10-14T03:40:18.532Z,9.93
2017-10-14T03:42:46.073Z,8.00
2017-10-14T03:45:13.615Z,7.68
2017-10-14T03:47:41.172Z,6.78
2017-10-14T03:50:08.704Z,8.97
2017-10-14T03:52:36.668Z,8.47
2017-10-14T03:55:04.198Z,9.53
2017-10-14T03:57:31.751Z,8.80
2017-10-14T03:59:59.311Z,6.17
2017-10-14T04:02:27.268Z,8.03
2017-10-14T04:04:54.816Z,8.70
2017-10-14T04:07:22.366Z,6.62
2017-10-14T04:09:49.917Z,8.85
2017-10-14T04:12:17.453Z,10.90
2017-10-14T04:14:45.440Z,7.75
2017-10-14T04:17:13.365Z,9.38
2017-10-14T04:19:40.917Z,9.38
2017-10-14T04:22:08.454Z,6.50
2017-10-14T04:24:36.080Z,8.45
2017-10-14T04:27:03.611Z,7.18
2017-10-14T04:29:31.552Z,8.27
2017-10-14T04:31:59.107Z,10.55
2017-10-14T04:34:26.665Z,10.75
2017-10-14T04:36:54.222Z,9.98
2017-10-14T04:39:21.817Z,8.32
2017-10-14T04:41:49.370Z,9.10
2017-10-14T04:44:17.297Z,11.00
2017-10-14T04:46:44.848Z,7.55
2017-10-14T04:49:12.391Z,8.07
2017-10-14T04:51:40.362Z,9.45
2017-10-14T04:54:08.302Z,9.65
2017-10-14T04:56:35.858Z,16.55
2017-10-14T04:59:03.415Z,8.55
2017-10-14T05:01:30.953Z,9.85
2017-10-14T05:03:58.519Z,9.18
2017-10-14T05:06:26.066Z,9.60
2017-10-14T05:08:53.619Z,6.18
2017-10-14T05:11:21.175Z,6.85
2017-10-14T05:13:48.747Z,8.80
2017-10-14T05:16:16.334Z,9.45
2017-10-14T05:18:43.868Z,8.25
2017-10-14T05:21:11.828Z,7.40
2017-10-14T05:23:39.790Z,7.20
2017-10-14T05:26:07.366Z,8.35
2017-10-14T05:28:34.909Z,7.62
2017-10-14T05:31:02.474Z,7.43
2017-10-14T05:33:30.018Z,7.55
2017-10-14T05:35:57.999Z,6.95
2017-10-14T05:38:25.928Z,7.95
2017-10-14T05:40:53.482Z,9.43
2017-10-14T05:43:21.032Z,8.85
2017-10-14T05:45:48.580Z,7.40
2017-10-14T05:48:16.145Z,9.00
2017-10-14T05:50:43.709Z,7.68
2017-10-14T05:53:11.271Z,10.93
2017-10-14T05:55:38.792Z,7.65
2017-10-14T05:58:06.363Z,10.00
2017-10-14T06:00:33.892Z,9.30
2017-10-14T06:03:01.485Z,7.85
2017-10-14T06:05:29.449Z,9.55
2017-10-14T06:07:56.988Z,7.85
2017-10-14T06:10:24.529Z,9.55
2017-10-14T06:12:52.086Z,9.02
2017-10-14T06:15:19.648Z,7.55
2017-10-14T06:17:47.587Z,8.18
2017-10-14T06:20:15.213Z,8.65
2017-10-14T06:22:42.808Z,11.75
2017-10-14T06:25:10.388Z,8.70
2017-10-14T06:27:37.915Z,7.65
2017-10-14T06:30:05.896Z,7.65
2017-10-14T06:32:33.841Z,8.25
2017-10-14T06:35:01.386Z,9.50
2017-10-14T06:37:28.956Z,12.77
2017-10-14T06:39:56.489Z,14.38
2017-10-14T06:42:24.049Z,8.77
2017-10-14T06:44:51.596Z,7.30
2017-10-14T06:47:19.147Z,10.13
2017-10-14T06:49:46.689Z,9.07
2017-10-14T06:52:14.655Z,11.18
2017-10-14T06:54:42.189Z,10.20
2017-10-14T06:57:09.720Z,8.35
2017-10-14T06:59:37.677Z,12.02
2017-10-14T07:02:05.221Z,20.67
2017-10-14T07:04:32.773Z,24.37
2017-10-14T07:07:00.310Z,28.23
2017-10-14T07:09:27.860Z,21.58
2017-10-14T07:11:55.426Z,41.50
2017-10-14T07:14:22.985Z,31.60
2017-10-14T07:16:50.566Z,29.95
2017-10-14T07:19:18.101Z,14.63
2017-10-14T07:21:45.673Z,12.20
2017-10-14T07:24:13.202Z,13.50
2017-10-14T07:26:40.770Z,12.83
2017-10-14T07:29:08.315Z,17.30
2017-10-14T07:31:35.871Z,15.07
2017-10-14T07:34:03.410Z,14.43
2017-10-14T07:36:31.363Z,12.60
2017-10-14T07:38:58.880Z,10.30
2017-10-14T07:41:26.451Z,10.53
2017-10-14T07:43:53.975Z,8.83
2017-10-14T07:46:21.514Z,9.57
2017-10-14T07:48:49.078Z,7.27
2017-10-14T07:51:16.610Z,7.57
2017-10-14T07:53:44.554Z,8.30
2017-10-14T07:56:12.083Z,8.60
2017-10-14T07:58:39.634Z,10.40
2017-10-14T08:01:07.553Z,9.30
2017-10-14T08:03:35.099Z,7.77
2017-10-14T08:06:03.019Z,11.93
2017-10-14T08:08:30.580Z,8.97
2017-10-14T08:10:58.184Z,8.00
2017-10-14T08:13:25.722Z,7.27
2017-10-14T08:15:53.268Z,8.63
2017-10-14T08:18:20.804Z,8.80
2017-10-14T08:20:48.456Z,7.93
2017-10-14T08:23:16.002Z,8.43
2017-10-14T08:25:43.549Z,9.70
2017-10-14T08:28:11.109Z,9.20
2017-10-14T08:30:39.113Z,10.47
2017-10-14T08:33:06.658Z,8.57
2017-10-14T08:35:35.528Z,7.90
2017-10-14T08:38:03.486Z,7.53
2017-10-14T08:40:31.012Z,9.70
2017-10-14T08:42:58.561Z,10.90
2017-10-14T08:45:26.136Z,7.97
2017-10-14T08:47:53.694Z,7.73
2017-10-14T08:50:21.235Z,9.80
2017-10-14T08:52:48.785Z,9.17
2017-10-14T08:55:16.705Z,8.97
2017-10-14T08:57:44.268Z,7.93
2017-10-14T09:00:11.793Z,8.30
2017-10-14T09:02:39.371Z,11.13
2017-10-14T09:05:06.898Z,8.30
2017-10-14T09:07:34.444Z,8.40
2017-10-14T09:10:01.990Z,10.10
2017-10-14T09:12:29.913Z,8.30
2017-10-14T09:14:57.488Z,8.33
2017-10-14T09:17:25.015Z,7.13
2017-10-14T09:19:52.962Z,10.47
2017-10-14T09:22:20.493Z,8.33
2017-10-14T09:24:48.038Z,7.30
2017-10-14T09:27:15.961Z,9.20
2017-10-14T09:29:43.522Z,10.47
2017-10-14T09:32:11.058Z,9.10
2017-10-14T09:34:38.981Z,7.03
2017-10-14T09:37:06.526Z,7.10
2017-10-14T09:39:34.067Z,8.80
2017-10-14T09:42:01.614Z,9.83
2017-10-14T09:44:29.139Z,9.33
2017-10-14T09:46:57.084Z,7.00
2017-10-14T09:49:24.610Z,10.10
2017-10-14T09:51:52.161Z,7.23
2017-10-14T09:54:20.081Z,7.07
2017-10-14T09:56:47.630Z,8.53
2017-10-14T09:59:15.186Z,8.80
2017-10-14T10:01:43.124Z,7.03
2017-10-14T10:04:10.671Z,12.30
2017-10-14T10:06:38.224Z,10.13
2017-10-14T10:09:05.786Z,8.43
2017-10-14T10:11:33.342Z,5.17
2017-10-14T10:14:00.916Z,8.13
2017-10-14T10:16:28.849Z,8.13
2017-10-14T10:18:56.416Z,9.17
2017-10-14T10:21:23.963Z,8.17
2017-10-14T10:23:51.493Z,7.93
2017-10-14T10:26:19.061Z,10.23
2017-10-14T10:28:46.604Z,7.87
2017-10-14T10:31:14.145Z,6.37
2017-10-14T10:33:42.092Z,6.40
2017-10-14T10:36:09.645Z,10.67
2017-10-14T10:38:37.181Z,7.03
2017-10-14T10:41:04.707Z,9.20
2017-10-14T10:43:32.643Z,8.77
2017-10-14T10:46:00.197Z,9.03
2017-10-14T10:48:28.207Z,6.43
2017-10-14T10:50:55.740Z,7.77
2017-10-14T10:53:23.275Z,7.10
2017-10-14T10:55:50.812Z,8.20
2017-10-14T10:58:18.360Z,6.70
2017-10-14T11:00:45.899Z,5.77
2017-10-14T11:03:13.873Z,5.90
2017-10-14T11:05:41.404Z,4.27
2017-10-14T11:08:08.926Z,6.30
2017-10-14T11:10:36.892Z,10.10
2017-10-14T11:13:04.422Z,6.60
2017-10-14T11:15:32.009Z,6.70
2017-10-14T11:17:59.532Z,4.30
2017-10-14T11:20:27.475Z,5.93
2017-10-14T11:22:55.014Z,6.10
2017-10-14T11:25:22.561Z,5.57
2017-10-14T11:27:50.099Z,4.70
2017-10-14T11:30:17.670Z,5.70
2017-10-14T11:32:45.615Z,5.30
2017-10-14T11:35:13.143Z,5.73
2017-10-14T11:37:40.697Z,4.20
2017-10-14T11:40:08.236Z,4.67
2017-10-14T11:42:35.784Z,3.40
2017-10-14T11:45:03.328Z,2.67
2017-10-14T11:47:31.269Z,6.33
2017-10-14T11:49:58.784Z,3.67
2017-10-14T11:52:26.737Z,3.37
2017-10-14T11:54:54.276Z,3.77
2017-10-14T11:57:21.811Z,4.00
2017-10-14T11:59:49.748Z,4.57
2017-10-14T12:02:17.289Z,2.53
2017-10-14T12:04:44.832Z,4.10
2017-10-14T12:07:12.772Z,5.80
2017-10-14T12:09:40.328Z,5.20
2017-10-14T12:12:07.858Z,4.77
2017-10-14T12:14:35.791Z,3.13
2017-10-14T12:17:03.331Z,3.43
2017-10-14T12:19:30.882Z,2.73
2017-10-14T12:21:58.418Z,3.70
2017-10-14T12:24:25.958Z,4.00
2017-10-14T12:26:53.504Z,5.13
2017-10-14T12:29:21.052Z,3.87
2017-10-14T12:31:48.998Z,4.43
2017-10-14T12:34:16.527Z,6.53
2017-10-14T12:36:44.144Z,4.73
2017-10-14T12:39:11.680Z,4.97
2017-10-14T12:41:39.247Z,5.90
2017-10-14T12:44:06.782Z,2.40
2017-10-14T12:46:34.353Z,4.07
2017-10-14T12:49:01.898Z,4.33
2017-10-14T12:51:29.429Z,2.77
2017-10-14T12:53:57.371Z,5.60
2017-10-14T12:56:24.903Z,7.13
2017-10-14T12:58:52.448Z,7.73
2017-10-14T13:01:19.976Z,3.60
2017-10-14T13:03:47.558Z,3.90
2017-10-14T13:06:15.082Z,2.70
2017-10-14T13:08:42.682Z,2.97
2017-10-14T13:11:10.225Z,4.33
2017-10-14T13:13:37.770Z,3.90
2017-10-14T13:16:05.690Z,3.60
2017-10-14T13:18:33.229Z,4.83
2017-10-14T13:21:01.172Z,2.63
2017-10-14T13:23:28.695Z,2.03
2017-10-14T13:25:56.266Z,6.10
2017-10-14T13:28:23.799Z,2.70
2017-10-14T13:30:51.352Z,5.33
2017-10-14T13:33:18.899Z,2.40
2017-10-14T13:35:46.456Z,3.60
2017-10-14T13:38:13.981Z,3.40
2017-10-14T13:40:41.590Z,4.37
2017-10-14T13:43:09.116Z,3.23
2017-10-14T13:45:36.637Z,3.33
2017-10-14T13:48:04.237Z,2.97
2017-10-14T13:50:31.770Z,5.10
2017-10-14T13:52:59.339Z,2.70
2017-10-14T13:55:27.261Z,4.27
2017-10-14T13:57:54.815Z,2.70
2017-10-14T14:00:22.340Z,2.60
2017-10-14T14:02:49.891Z,1.97
2017-10-14T14:05:17.426Z,2.37
2017-10-14T14:07:44.981Z,4.50
2017-10-14T14:10:13.002Z,2.60
2017-10-14T14:12:41.059Z,2.30
2017-10-14T14:15:08.598Z,2.37
2017-10-14T14:17:36.121Z,2.27
2017-10-14T14:20:03.669Z,2.17
2017-10-14T14:22:31.219Z,3.57
2017-10-14T14:24:59.145Z,6.80
2017-10-14T14:27:26.652Z,2.87
2017-10-14T14:29:54.221Z,1.73
2017-10-14T14:32:21.750Z,5.67
2017-10-14T14:34:49.288Z,2.30
2017-10-14T14:37:17.269Z,2.20
2017-10-14T14:39:45.254Z,2.70
2017-10-14T14:42:12.856Z,1.60
2017-10-14T14:44:40.397Z,2.20
2017-10-14T14:47:07.943Z,2.67
2017-10-14T14:49:35.489Z,2.37
2017-10-14T14:52:03.046Z,3.93
2017-10-14T14:54:30.608Z,3.00
2017-10-14T14:56:58.159Z,3.33
2017-10-14T14:59:26.075Z,4.23
2017-10-14T15:01:53.624Z,3.40
2017-10-14T15:04:21.159Z,2.03
2017-10-14T15:06:48.695Z,2.00
2017-10-14T15:09:16.236Z,3.00
2017-10-14T15:11:43.769Z,4.63
2017-10-14T15:14:11.313Z,2.63
2017-10-14T15:16:38.852Z,1.93
2017-10-14T15:19:06.651Z,2.60
2017-10-14T15:21:34.185Z,2.80
2017-10-14T15:24:02.142Z,1.70
2017-10-14T15:26:29.666Z,2.60
2017-10-14T15:28:57.189Z,4.20
2017-10-14T15:31:24.727Z,2.10
2017-10-14T15:33:52.265Z,4.03
2017-10-14T15:36:19.813Z,2.73
2017-10-14T15:38:47.735Z,2.43
2017-10-14T15:41:15.304Z,3.47
2017-10-14T15:43:42.833Z,2.77
2017-10-14T15:46:10.375Z,5.80
2017-10-14T15:48:37.897Z,3.93
2017-10-14T15:51:05.436Z,3.27
2017-10-14T15:53:32.960Z,3.40
2017-10-14T15:56:00.521Z,2.73
2017-10-14T15:58:28.055Z,2.50
2017-10-14T16:00:55.625Z,2.93
2017-10-14T16:03:23.214Z,3.73
2017-10-14T16:05:51.142Z,2.90
2017-10-14T16:08:18.693Z,5.07
2017-10-14T16:10:46.226Z,8.23
2017-10-14T16:13:13.791Z,4.50
2017-10-14T16:15:41.309Z,3.30
2017-10-14T16:18:08.850Z,6.50
2017-10-14T16:20:36.839Z,6.77
2017-10-14T16:23:04.802Z,7.90
2017-10-14T16:25:32.736Z,5.73
2017-10-14T16:28:00.269Z,3.97
2017-10-14T16:30:28.193Z,6.07
2017-10-14T16:32:55.745Z,5.40
2017-10-14T16:35:23.269Z,2.80
2017-10-14T16:37:50.842Z,9.50
2017-10-14T16:40:18.368Z,6.03
2017-10-14T16:42:46.355Z,6.60
2017-10-14T16:45:13.893Z,4.37
2017-10-14T16:47:41.807Z,4.70
2017-10-14T16:50:09.357Z,4.40
2017-10-14T16:52:36.917Z,5.40
2017-10-14T16:55:04.483Z,6.43
2017-10-14T16:57:32.425Z,7.50
2017-10-14T17:00:00.000Z,7.60
2017-10-14T17:02:27.552Z,5.20
2017-10-14T17:04:55.375Z,5.30
2017-10-14T17:07:22.971Z,7.70
2017-10-14T17:09:50.925Z,13.10
2017-10-14T17:12:18.873Z,8.60
2017-10-14T17:14:46.950Z,13.07
2017-10-14T17:17:14.529Z,9.13
2017-10-14T17:19:42.045Z,5.80
2017-10-14T17:22:09.964Z,6.13
2017-10-14T17:24:37.516Z,6.87
2017-10-14T17:27:06.112Z,5.63
2017-10-14T17:29:33.673Z,7.63
2017-10-14T17:32:01.196Z,6.20
2017-10-14T17:34:28.775Z,6.53
2017-10-14T17:36:56.322Z,6.10
2017-10-14T17:39:23.856Z,10.30
2017-10-14T17:41:51.400Z,7.77
2017-10-14T17:44:18.926Z,6.33
2017-10-14T17:46:46.488Z,8.10
2017-10-14T17:49:14.023Z,6.00
2017-10-14T17:51:41.575Z,6.30
2017-10-14T17:54:09.110Z,7.73
2017-10-14T17:56:36.666Z,6.47
2017-10-14T17:59:04.202Z,5.40
2017-10-14T18:01:31.770Z,7.60
2017-10-14T18:03:59.368Z,7.70
2017-10-14T18:06:27.377Z,5.00
2017-10-14T18:08:54.924Z,5.33
2017-10-14T18:11:23.018Z,8.47
2017-10-14T18:13:50.584Z,11.73
2017-10-14T18:16:18.186Z,10.70
2017-10-14T18:18:45.740Z,10.80
2017-10-14T18:21:13.357Z,16.67
2017-10-14T18:23:40.892Z,7.20
2017-10-14T18:26:08.516Z,6.90
2017-10-14T18:28:36.137Z,5.17
2017-10-14T18:31:04.417Z,8.57
2017-10-14T18:33:31.956Z,4.37
2017-10-14T18:35:59.613Z,4.43
2017-10-14T18:38:27.178Z,6.60
2017-10-14T18:40:54.863Z,4.10
2017-10-14T18:43:22.449Z,3.73
2017-10-14T18:45:50.052Z,5.33
2017-10-14T18:48:17.619Z,5.27
2017-10-14T18:50:45.553Z,3.97
2017-10-14T18:53:13.123Z,4.40
2017-10-14T18:55:40.796Z,6.67
2017-10-14T18:58:08.761Z,5.60
2017-10-14T19:00:36.302Z,5.90
2017-10-14T19:03:03.835Z,6.30
2017-10-14T19:05:31.424Z,5.57
2017-10-14T19:07:59.336Z,10.63
2017-10-14T19:10:27.011Z,5.87
2017-10-14T19:12:54.550Z,4.80
2017-10-14T19:15:22.501Z,6.20
2017-10-14T19:17:50.040Z,5.07
2017-10-14T19:20:17.604Z,4.83
2017-10-14T19:22:45.152Z,4.43
2017-10-14T19:25:13.093Z,4.67
2017-10-14T19:27:40.646Z,3.83
2017-10-14T19:30:08.176Z,6.27
2017-10-14T19:32:35.699Z,4.77
2017-10-14T19:35:03.378Z,4.20
2017-10-14T19:37:30.916Z,4.43
2017-10-14T19:39:58.637Z,4.17
2017-10-14T19:42:26.163Z,5.40
2017-10-14T19:44:53.818Z,5.40
2017-10-14T19:47:21.388Z,5.63
2017-10-14T19:49:49.103Z,5.23
2017-10-14T19:52:16.649Z,6.40
2017-10-14T19:54:44.257Z,4.90
2017-10-14T19:57:11.801Z,5.17
2017-10-14T19:59:39.414Z,6.00
2017-10-14T20:02:06.960Z,5.17
2017-10-14T20:04:34.602Z,7.60
2017-10-14T20:07:02.173Z,8.03
2017-10-14T20:09:29.776Z,5.77
2017-10-14T20:11:57.308Z,6.90
2017-10-14T20:14:25.324Z,5.77
2017-10-14T20:16:52.863Z,7.83
2017-10-14T20:19:20.925Z,7.07
2017-10-14T20:21:48.449Z,4.97
2017-10-14T20:24:16.089Z,8.57
2017-10-14T20:26:44.008Z,6.07
2017-10-14T20:29:11.656Z,9.10
2017-10-14T20:31:39.186Z,6.17
2017-10-14T20:34:06.881Z,4.83
2017-10-14T20:36:34.406Z,7.00
2017-10-14T20:39:02.055Z,7.73
2017-10-14T20:41:29.576Z,5.30
2017-10-14T20:43:57.238Z,6.40
2017-10-14T20:46:24.771Z,5.90
2017-10-14T20:48:52.390Z,7.23
2017-10-14T20:51:19.993Z,5.53
2017-10-14T20:53:47.634Z,7.43
2017-10-14T20:56:15.170Z,4.90
2017-10-14T20:58:42.728Z,6.17
2017-10-14T21:01:10.293Z,5.63
2017-10-14T21:03:37.832Z,8.67
2017-10-14T21:06:05.401Z,9.50
2017-10-14T21:08:32.931Z,7.73
2017-10-14T21:11:00.459Z,7.97
2017-10-14T21:13:27.995Z,5.20
2017-10-14T21:15:55.516Z,7.53
2017-10-14T21:18:23.129Z,5.20
2017-10-14T21:20:50.690Z,9.70
2017-10-14T21:23:18.232Z,6.57
2017-10-14T21:25:46.168Z,6.90
2017-10-14T21:28:13.724Z,6.30
2017-10-14T21:30:41.262Z,6.23
2017-10-14T21:33:08.793Z,5.47
2017-10-14T21:35:36.340Z,8.03
2017-10-14T21:38:03.955Z,5.37
2017-10-14T21:40:31.893Z,7.67
2017-10-14T21:42:59.439Z,10.50
2017-10-14T21:45:27.042Z,7.80
2017-10-14T21:47:54.621Z,12.97
2017-10-14T21:50:22.275Z,8.03
2017-10-14T21:52:49.830Z,8.60
2017-10-14T21:55:17.372Z,13.03
2017-10-14T21:57:45.340Z,10.10
2017-10-14T22:00:12.871Z,7.20
2017-10-14T22:02:40.430Z,9.00
2017-10-14T22:05:08.089Z,7.60
2017-10-14T22:07:35.621Z,7.03
2017-10-14T22:10:03.193Z,8.20
2017-10-14T22:12:30.748Z,7.97
2017-10-14T22:14:58.336Z,7.87
2017-10-14T22:17:25.865Z,9.10
2017-10-14T22:19:53.431Z,7.00
2017-10-14T22:22:20.976Z,8.97
2017-10-14T22:24:48.521Z,10.27
2017-10-14T22:27:16.958Z,8.50
2017-10-14T22:29:44.521Z,7.43
2017-10-14T22:32:12.044Z,7.97
2017-10-14T22:34:39.627Z,8.17
2017-10-14T22:37:07.158Z,7.80
2017-10-14T22:39:34.689Z,11.27
2017-10-14T22:42:02.643Z,8.07
2017-10-14T22:44:30.178Z,9.77
2017-10-14T22:46:57.743Z,8.90
2017-10-14T22:49:25.306Z,9.10
2017-10-14T22:51:52.868Z,8.83
2017-10-14T22:54:20.785Z,8.37
2017-10-14T22:56:48.522Z,9.00
2017-10-14T22:59:16.448Z,8.50
2017-10-14T23:01:43.976Z,12.23
2017-10-14T23:04:11.514Z,8.43
2017-10-14T23:06:39.061Z,9.13
2017-10-14T23:09:06.682Z,8.40
2017-10-14T23:11:34.613Z,7.33
2017-10-14T23:14:02.149Z,7.97
2017-10-14T23:16:30.087Z,7.70
2017-10-14T23:18:57.653Z,12.23
2017-10-14T23:21:25.178Z,8.60
2017-10-14T23:23:52.723Z,8.40
2017-10-14T23:26:20.297Z,9.63
2017-10-14T23:28:47.829Z,11.57
2017-10-14T23:31:15.381Z,6.97
2017-10-14T23:33:42.901Z,7.23
2017-10-14T23:36:10.454Z,7.23
2017-10-14T23:38:37.981Z,8.67
2017-10-14T23:41:05.532Z,7.47
2017-10-14T23:43:33.513Z,7.13
2017-10-14T23:46:01.506Z,7.20
2017-10-14T23:48:29.058Z,11.63
2017-10-14T23:50:56.596Z,9.43
2017-10-14T23:53:24.155Z,9.23
2017-10-14T23:55:51.701Z,7.63
2017-10-14T23:58:19.228Z,9.53
